Friday, February 23, 2018, 8:06 PM GMT
Back to Local

CYSJ, Saint John, N. B.

Location: , , Canada Lat: 45.333
Local Time: 8:06 PM GMT (20:06 GMT) Lon: -65.883
Time Zone: GMT Elev: 337 ft

Show me the last for .
Show Decoded

2018-02-23 19:00 METAR CYSJ 231900Z 19009KT 15SM SCT140 OVC220 M03/M12 A3054 RMK AC3CI5 SLP349 =
2018-02-23 18:00 METAR CYSJ 231800Z 00000KT 15SM SCT160 OVC230 M02/M15 A3058 RMK AC3CI5 SLP364 =
2018-02-23 17:00 METAR CYSJ 231700Z 00000KT 15SM FEW180 BKN220 M03/M16 A3062 RMK AC1CI6 PRESFR
                 SLP377 =
2018-02-23 16:00 METAR CYSJ 231600Z 33007KT 15SM FEW120 BKN260 M03/M15 A3066 RMK AC1CI4 SLP391 =
2018-02-23 15:00 METAR CYSJ 231500Z 03004KT 330V060 15SM FEW120 SCT260 M04/M15 A3069 RMK AC2CI2
                 SLP400 =
2018-02-23 14:00 METAR CYSJ 231400Z 36005KT 330V030 15SM SCT260 M05/M15 A3071 RMK CI3 SLP408 =
2018-02-23 13:00 METAR CYSJ 231300Z 05003KT 010V080 15SM SKC M07/M15 A3072 RMK SLP410 =
2018-02-23 12:00 METAR CYSJ 231200Z 19003KT 15SM SKC M10/M13 A3072 RMK SLP413 =
2018-02-23 11:00 METAR CYSJ 231100Z 01003KT 15SM SKC M10/M14 A3070 RMK SLP406 =
2018-02-23 10:00 METAR CYSJ 231000Z 36007KT 15SM SKC M10/M15 A3070 RMK SLP405 =
2018-02-23 09:00 METAR CYSJ 230900Z 01008KT 15SM SKC M09/M15 A3069 RMK SLP403 =
2018-02-23 08:00 METAR CYSJ 230800Z 36011KT 15SM SKC M08/M15 A3069 RMK SLP401 =
2018-02-23 07:00 METAR CYSJ 230700Z 35014KT 15SM SKC M07/M15 A3067 RMK SLP396 =
2018-02-23 06:00 METAR CYSJ 230600Z 35012G17KT 15SM SKC M07/M15 A3067 RMK SLP394 =
2018-02-23 05:00 METAR CYSJ 230500Z 36011KT 15SM FEW180 M06/M15 A3064 RMK AC2 SLP385 =
2018-02-23 04:00 METAR CYSJ 230400Z 36008KT 15SM SCT180 M06/M14 A3063 RMK AC3 SLP380 =
2018-02-23 03:00 METAR CYSJ 230300Z 01010G15KT 15SM SCT180 M06/M14 A3062 RMK AC4 SLP376 =
2018-02-23 02:00 METAR CYSJ 230200Z 35013KT 15SM BKN170 M05/M14 A3062 RMK AC5 SLP377 =
2018-02-23 01:00 METAR CYSJ 230100Z 34011KT 15SM BKN170 M04/M14 A3061 RMK AC7 SLP373 =
2018-02-23 00:00 METAR CYSJ 230000Z 33010G19KT 15SM BKN170 M04/M14 A3061 RMK AC7 SLP373 =
2018-02-22 23:00 METAR CYSJ 222300Z 30008KT 15SM BKN160 M03/M14 A3060 RMK AC7 SLP371 =
2018-02-22 22:00 METAR CYSJ 222200Z 32009KT 15SM BKN170 M03/M13 A3058 RMK AC7 SLP364 =
2018-02-22 21:00 METAR CYSJ 222100Z 32012KT 15SM OVC150 M03/M13 A3056 RMK AS8 SLP357 =

Support USWX by starting your Amazon purchase here.